Ship Status Report: callsign BATFR63

sailwx.info

Track history (hours):
 
Tides and Currents Weather Stations Pressure Air Temp Water Temp Dewpoint Dewpoint Depression Visibility Wind Speed Wind Dir Waves Ship Positions

Callsign BATFR63 (name unknown)

Last reported at 2018-Feb-17 23:00 UTC. Time now 2018-Feb-17 23:52 UTC.
Position N 49°30' W 000°12'.

Wind from 170 at 10 knots

Barometer 1024.1 mb
Air temperature 6.4 ° C
Dewpoint 4.5 ° C
Water temperature 7.7 ° C

Date/timePositionNaut miles runAvg speedWind from/ knotsBaromVisibWave heightAir tempDewpointWater temp
2018-Feb-17 23:00N 49°30' W 000°12'0 0.0 170 / 101024.1 6.4 4.5 7.7
2018-Feb-17 22:00N 49°30' W 000°12'0 0.0 180 / 101024.2 6.7 4.9 7.4
2018-Feb-17 21:00N 49°30' W 000°12'0 0.0 190 / 61024.1 6.7 5.4 7.5
2018-Feb-17 20:00N 49°30' W 000°12'0 0.0 190 / 51024.5 6.9 5.2 7.9
2018-Feb-17 19:00N 49°30' W 000°12'0 0.0 190 / 11024.6 6.9 4.9 7.9
2018-Feb-17 18:00N 49°30' W 000°12'8 7.8 240 / 31024.4 6.9 4.9 7.9
2018-Feb-17 17:00N 49°30' E 000°00'0 0.0 240 / 21024.1 6.9 4.7 7.0
2018-Feb-17 16:00N 49°30' E 000°00'0 0.0 360 / 11023.6 9.7 5.4 7.2
2018-Feb-17 15:00N 49°30' E 000°00'0 0.0 310 / 31023.4 8.7 4.9 7.7
2018-Feb-17 14:00N 49°30' E 000°00'0 0.0 320 / 41023.0 8.7 3.4 7.7
2018-Feb-17 13:00N 49°30' E 000°00'0 0.0 310 / 71022.6 7.0 3.4 7.5
2018-Feb-17 12:00N 49°30' E 000°00'0 0.0 290 / 51022.4 5.4 6.2 2.9 7.5
2018-Feb-17 11:00N 49°30' E 000°00'0 0.0 270 / 51022.0 5.7 2.4 7.4
2018-Feb-17 10:00N 49°30' E 000°00'0 0.0 270 / 21021.2 5.9 1.9 6.7
2018-Feb-17 09:00N 49°30' E 000°00'0 0.0 060 / 31020.6 6.4 2.4 7.2
2018-Feb-17 08:00N 49°30' E 000°00'0 0.0 360 / 51020.5 5.4 1.5 6.9
2018-Feb-17 07:00N 49°30' E 000°00'0 0.0 350 / 31020.2 5.4 1.9 7.4
2018-Feb-17 06:00N 49°30' E 000°00'0 0.0 120 / 31019.8 5.2 2.2 7.7
2018-Feb-17 05:00N 49°30' E 000°00'0 0.0 040 / 41019.6 5.7 1.7 7.4
2018-Feb-17 04:00N 49°30' E 000°00'0 0.0 100 / 71019.6 6.0 1.9 7.2
2018-Feb-17 03:00N 49°30' E 000°00'0 0.0 080 / 71019.8 6.4 1.9 6.9
2018-Feb-17 02:00N 49°30' E 000°00'0 0.0 100 / 111019.8 5.9 1.9 6.4
2018-Feb-17 01:00N 49°30' E 000°00'0 0.0 100 / 111020.0 5.7 1.9 6.7
2018-Feb-17 00:00N 49°30' E 000°00'0 0.0 110 / 111020.6 5.4 5.9 1.7 7.4
2018-Feb-16 23:00N 49°30' E 000°00'0 0.0 110 / 91021.2 5.9 2.2 7.5
2018-Feb-16 22:00N 49°30' E 000°00'0 0.0 120 / 111021.6 6.2 2.4 6.4
2018-Feb-16 21:00N 49°30' E 000°00'0 0.0 120 / 81022.3 6.7 2.4 7.7
2018-Feb-16 20:00N 49°30' E 000°00'0 0.0 120 / 81023.2 6.9 2.0 7.4
2018-Feb-16 19:00N 49°30' E 000°00'0 0.0 120 / 81023.9 7.0 2.5 7.2
2018-Feb-16 18:00N 49°30' E 000°00'0 0.0 100 / 51024.8 6.9 3.0 7.2
2018-Feb-16 17:00N 49°30' E 000°00'0 0.0 020 / 61024.9 6.7 3.7 6.9
2018-Feb-16 15:00N 49°30' E 000°00'0 0.0 020 / 21025.3 5.4 8.4 4.2 7.2
2018-Feb-16 14:00N 49°30' E 000°00'0 0.0 210 / 11026.0 8.9 4.2 6.9
2018-Feb-16 13:00N 49°30' E 000°00'0 0.0 230 / 21026.6 7.4 3.2 7.2
2018-Feb-16 12:00N 49°30' E 000°00'0 0.0 180 / 31026.8 6.7 2.5 7.2
2018-Feb-16 11:00N 49°30' E 000°00'0 0.0 180 / 61027.3 5.5 2.2 7.2
2018-Feb-16 10:00N 49°30' E 000°00'0 0.0 180 / 41027.0 5.4 2.2 6.9
2018-Feb-16 09:00N 49°30' E 000°00'0 0.0 170 / 81026.6 2.2 4.7 2.4 6.4
2018-Feb-16 08:00N 49°30' E 000°00'0 0.0 200 / 61026.4 5.2 3.2 6.7
2018-Feb-16 07:00N 49°30' E 000°00'0 0.0 220 / 101026.0 5.2 3.2 6.7
2018-Feb-16 06:00N 49°30' E 000°00'0 0.0 240 / 81025.8 5.7 3.4 6.9
2018-Feb-16 05:00N 49°30' E 000°00'0 0.0 230 / 121025.5 5.5 3.7 6.9
2018-Feb-16 04:00N 49°30' E 000°00'0 0.0 220 / 91025.1 5.7 4.0 7.0
2018-Feb-16 03:00N 49°30' E 000°00'0 0.0 240 / 91024.5 5.4 6.4 4.2 6.7
2018-Feb-16 02:00N 49°30' E 000°00'0 0.0 240 / 81024.0 6.5 4.5 6.4
2018-Feb-16 01:00N 49°30' E 000°00'0 0.0 260 / 91023.3 6.9 4.2 7.2
2018-Feb-16 00:00N 49°30' E 000°00'0 0.0 260 / 131022.5 5.4 7.2 4.4 7.4
2018-Feb-15 23:00N 49°30' E 000°00'0 0.0 280 / 141021.8 7.4 4.2 7.2
2018-Feb-15 22:00N 49°30' E 000°00'0 0.0 260 / 121021.3 7.2 4.9 6.9
2018-Feb-15 21:00N 49°30' E 000°00'0 0.0 260 / 111020.4 2.2 7.0 4.5 6.5
2018-Feb-15 20:00N 49°30' E 000°00'0 0.0 260 / 91019.8 7.4 4.9 7.4
2018-Feb-15 19:00N 49°30' E 000°00'7 7.2 290 / 121019.4 7.9 4.2 7.2
2018-Feb-15 18:00N 49°24' E 000°06'8 7.8 250 / 81018.6 7.5 4.5 5.2
2018-Feb-15 17:00N 49°24' E 000°18'0 0.0 260 / 71017.8 7.2 4.9 4.9
2018-Feb-15 16:00N 49°24' E 000°18'0 0.0 260 / 91016.9 7.2 5.4 5.0
2018-Feb-15 15:00N 49°24' E 000°18'0 0.0 260 / 91016.0 2.2 7.4 5.5 4.9
2018-Feb-15 14:00N 49°24' E 000°18'0 0.0 260 / 91015.1 7.7 5.9 5.0
2018-Feb-15 13:00N 49°24' E 000°18'0 0.0 270 / 101014.4 8.7 6.2 5.2
2018-Feb-15 12:00N 49°24' E 000°18'0 0.0 270 / 131013.3 8.4 6.5 5.4
2018-Feb-15 11:00N 49°24' E 000°18'0 0.0 260 / 151012.6 9.2 7.2 5.4
2018-Feb-15 10:00N 49°24' E 000°18'0 0.0 260 / 151011.5 10.2 7.9 5.4
2018-Feb-15 09:00N 49°24' E 000°18'0 0.0 250 / 141010.3 2.2 10.5 8.2 5.2
2018-Feb-15 08:00N 49°24' E 000°18'0 0.0 250 / 131009.5 10.9 8.9 4.9
2018-Feb-15 07:00N 49°24' E 000°18'0 0.0 240 / 141008.4 10.9 9.4 4.9
2018-Feb-15 06:00N 49°24' E 000°18'0 0.0 240 / 71008.0 10.2 9.2 5.2
2018-Feb-15 05:00N 49°24' E 000°18'0 0.0 220 / 101007.2 10.4 8.9 4.9
2018-Feb-15 04:00N 49°24' E 000°18'0 0.0 220 / 91006.7 9.7 8.7 4.9
2018-Feb-15 03:00N 49°24' E 000°18'0 0.0 220 / 101006.4 9.4 8.4 4.9
2018-Feb-15 02:00N 49°24' E 000°18'0 0.0 220 / 91005.9 8.7 7.9 4.9
2018-Feb-15 01:00N 49°24' E 000°18'0 0.0 140 / 21005.4 7.4 6.5 4.9
2018-Feb-15 00:00N 49°24' E 000°18'0 0.0 170 / 61004.9 6.9 5.9 5.0
2018-Feb-14 23:00N 49°24' E 000°18'0 0.0 120 / 41004.9 5.9 4.9 5.0
2018-Feb-14 22:00N 49°24' E 000°18'0 0.0 100 / 41005.0 5.7 4.4 5.4
2018-Feb-14 21:00N 49°24' E 000°18'0 0.0 110 / 81005.1 5.2 3.9 5.0
2018-Feb-14 20:00N 49°24' E 000°18'0 0.0 130 / 91005.4 5.4 3.7 4.9
2018-Feb-14 19:00N 49°24' E 000°18'4 3.9 130 / 91006.3 5.0 3.4 4.9
2018-Feb-14 18:00N 49°24' E 000°12'10 9.8 150 / 181005.8 4.9 2.9 4.7
2018-Feb-14 17:00N 49°30' E 000°00'8 0.2 160 / 251006.0 5.9 2.9 7.2
2018-Feb-12 16:00N 49°30' W 000°12'10 9.8 250 / 111018.2 3.9 1.2 8.2
2018-Feb-12 15:00N 49°36' W 000°24'1211.7 270 / 281018.2 3.7 1.4 8.7
2018-Feb-12 14:00N 49°36' W 000°42'10 9.8 220 / 131018.0 6.4 0.4 9.2
2018-Feb-12 13:00N 49°42' W 000°54'8 7.8 250 / 91018.4 6.7-0.2 8.7
2018-Feb-12 12:00N 49°42' W 001°06'8 7.8 260 / 141018.6 6.7 0.7 8.7
2018-Feb-12 11:00N 49°42' W 001°18'10 9.8 290 / 131018.9 7.5-0.8 8.7
2018-Feb-12 10:00N 49°48' W 001°30'8 7.7 290 / 161018.8 7.5-1.6 9.7
2018-Feb-12 09:00N 49°48' W 001°42'1313.1 290 / 141018.7 7.2-0.8 9.7
2018-Feb-12 08:00N 49°42' W 002°00'7 7.1 290 / 181017.9 6.5-0.8 9.7
2018-Feb-12 07:00N 49°36' W 002°06'1414.3 300 / 211017.6 6.7-0.8 9.9
2018-Feb-12 06:00N 49°24' W 002°18'10 9.9 300 / 121017.7 6.2-0.6 9.9
2018-Feb-12 05:00N 49°18' W 002°30'1211.7 280 / 181017.6 6.9 0.910.2
2018-Feb-12 04:00N 49°18' W 002°48'10 9.9 310 / 201017.5 7.0-0.310.4
2018-Feb-12 03:00N 49°12' W 003°00'1313.2 310 / 201017.7 7.0-0.810.2
2018-Feb-12 02:00N 49°06' W 003°18'8 7.9 310 / 201018.0 7.0-1.610.0
2018-Feb-12 01:00N 49°06' W 003°30'1313.2 320 / 211018.2 6.9-0.810.0
2018-Feb-12 00:00N 49°00' W 003°48'10 9.9 310 / 211018.3 6.9-1.810.7
2018-Feb-11 23:00N 48°54' W 004°00'8 7.9 320 / 231018.1 6.9-1.810.7
2018-Feb-11 22:00N 48°54' W 004°12'1313.3 320 / 231018.0 7.0 0.410.9
2018-Feb-11 21:00N 48°48' W 004°30'10 9.9 320 / 231017.7 7.2-0.810.9
2018-Feb-11 20:00N 48°42' W 004°42'7 7.2 330 / 251017.3 7.2-0.810.9
2018-Feb-11 19:00N 48°36' W 004°48'0 0.0 320 / 291016.8 6.5-0.210.9
2018-Feb-11 18:00N 48°36' W 004°48'1212.0 310 / 261015.8 6.9-0.310.9
2018-Feb-11 17:00N 48°24' W 004°48'6 6.0 320 / 251015.2 6.9 0.210.7
2018-Feb-11 16:00N 48°18' W 004°48'1212.0 310 / 261014.7 7.0 0.210.7
2018-Feb-11 15:00N 48°06' W 004°48'7 7.2 320 / 271014.6 5.9 2.710.5
2018-Feb-11 14:00N 48°00' W 004°42'7 7.2 320 / 231014.1 7.5 2.410.7
2018-Feb-11 13:00N 47°54' W 004°36'1010.0 320 / 261013.5 8.2 3.911.2
2018-Feb-11 12:00N 47°48' W 004°24'1010.1 310 / 191013.7 7.2 3.410.5
2018-Feb-11 11:00N 47°42' W 004°12'1010.1 310 / 241013.3 7.7 3.711.0
2018-Feb-11 10:00N 47°36' W 004°00'8 8.1 300 / 221013.1 9.4 3.010.7
2018-Feb-11 09:00N 47°36' W 003°48'1413.5 300 / 181013.0 8.9 2.711.0
2018-Feb-11 08:00N 47°30' W 003°30'1010.1 310 / 191012.7 9.2 3.910.5
2018-Feb-11 07:00N 47°24' W 003°18'8 8.1 310 / 191011.8 9.4 3.910.4
2018-Feb-11 06:00N 47°24' W 003°06'0 0.0 310 / 171011.7 9.4 5.210.5
2018-Feb-11 05:00N 47°24' W 003°06'0 0.0 320 / 211011.1 10.2 5.210.7
2018-Feb-11 04:00N 47°24' W 003°06'0 0.0 300 / 171010.5 10.4 7.910.7
2018-Feb-11 03:00N 47°24' W 003°06'0 0.0 300 / 241010.0 10.4 8.510.7
2018-Feb-11 02:00N 47°24' W 003°06'0 0.0 260 / 161009.6 11.210.910.7
2018-Feb-11 01:00N 47°24' W 003°06'0 0.0 260 / 151010.1 11.210.910.7
2018-Feb-11 00:00N 47°24' W 003°06'0 0.0 260 / 141010.6 11.210.910.7
2018-Feb-10 23:00N 47°24' W 003°06'0 0.0 260 / 151011.3 11.210.910.7
2018-Feb-10 22:00N 47°24' W 003°06'0 0.0 240 / 151011.9 10.910.710.7
2018-Feb-10 21:00N 47°24' W 003°06'6 6.0 230 / 161012.6 0.5 10.710.410.4
2018-Feb-10 20:00N 47°18' W 003°06'7 7.3 230 / 221012.9 10.210.010.4
2018-Feb-10 19:00N 47°12' W 003°00'1010.1 220 / 231014.5 9.4 9.2 9.9
2018-Feb-10 18:00N 47°06' W 002°48'1312.7 220 / 191015.8 9.4 7.7 9.4
2018-Feb-10 17:00N 46°54' W 002°42'1010.2 220 / 181017.0 9.4 7.9 9.7
2018-Feb-10 16:00N 46°48' W 002°30'7 7.3 220 / 191017.9 9.5 7.0 9.5
2018-Feb-10 15:00N 46°42' W 002°24'1312.7 200 / 181019.4 8.9 6.4 9.9
2018-Feb-10 14:00N 46°30' W 002°18'1010.2 200 / 181020.4 8.7 5.410.5
2018-Feb-10 13:00N 46°24' W 002°06'7 7.3 200 / 151021.5 8.4 4.4 9.9
2018-Feb-10 12:00N 46°18' W 002°00'1514.6 200 / 131022.6 2.2 8.0 2.710.0
2018-Feb-10 11:00N 46°06' W 001°48'7 7.3 190 / 81023.2 7.7 1.410.0
2018-Feb-10 10:00N 46°00' W 001°42'1312.7 130 / 31023.9 7.2 0.4 9.7
2018-Feb-10 09:00N 45°48' W 001°36'1010.3 100 / 61024.0 6.9 2.2 9.9
2018-Feb-10 08:00N 45°42' W 001°24'8 8.4 070 / 61023.9 6.4 2.0 9.7
2018-Feb-10 07:00N 45°42' W 001°12'7 7.3 070 / 41023.8 4.2 1.4 8.2
2018-Feb-10 06:00N 45°36' W 001°06'0 0.0 040 / 51023.2 5.7 1.9 8.2
2018-Feb-10 05:00N 45°36' W 001°06'0 0.0 350 / 61023.1 6.2 1.4 7.9
2018-Feb-10 04:00N 45°36' W 001°06'0 0.0 1022.8 6.7 1.0 8.7
2018-Feb-10 03:00N 45°36' W 001°06'0 0.0 1023.1 5.4 5.9 0.7 9.0
2018-Feb-10 02:00N 45°36' W 001°06'0 0.0 350 / 91023.4 6.2 0.2 8.2
2018-Feb-10 01:00N 45°36' W 001°06'0 0.0 350 / 111023.2 6.2-0.3 8.5
2018-Feb-10 00:00N 45°36' W 001°06'0 0.0 330 / 121023.6 5.4 6.0-0.2 8.7
2018-Feb-09 23:00N 45°36' W 001°06'0 0.0 340 / 121023.2 6.2 0.4 8.9
2018-Feb-09 22:00N 45°36' W 001°06'0 0.0 320 / 111023.1 6.4-0.0 8.7
2018-Feb-09 21:00N 45°36' W 001°06'0 0.0 330 / 81022.7 6.2 0.4 7.9
2018-Feb-09 20:00N 45°36' W 001°06'0 0.0 350 / 121022.1 5.9 0.2 8.0
2018-Feb-09 19:00N 45°36' W 001°06'0 0.0 330 / 161021.2 6.7-0.7 8.4
2018-Feb-09 18:00N 45°36' W 001°06'1010.3 330 / 211020.0 7.4 0.2 8.4
2018-Feb-09 17:00N 45°30' W 000°54'1312.7 320 / 201018.3 7.7 1.2 7.9
2018-Feb-09 16:00N 45°18' W 000°48'1312.7 340 / 111017.7 6.7 2.7 7.2
2018-Feb-09 15:00N 45°06' W 000°42'1312.7 340 / 111017.2 5.7 3.4 6.9
2018-Feb-09 14:00N 44°54' W 000°36'4 4.3 300 / 81016.9 4.9 3.7 7.0
2018-Feb-09 13:00N 44°54' W 000°30'0 0.0 200 / 101016.1 6.7 1.0 7.0
2018-Feb-09 12:00N 44°54' W 000°30'0 0.0 190 / 91016.9 4.2 0.2 7.2
2018-Feb-09 11:00N 44°54' W 000°30'4 4.3 190 / 101017.5 2.5-0.3 7.0
2018-Feb-09 10:00N 44°54' W 000°36'1212.0 180 / 101018.0 1.2-1.6 6.9
2018-Feb-09 09:00N 45°06' W 000°36'0 0.0 150 / 121018.4 2.2 1.2-1.2 6.9
2018-Feb-09 08:00N 45°06' W 000°36'0 0.0 140 / 111018.4 0.7-1.3 6.9
2018-Feb-09 07:00N 45°06' W 000°36'0 0.0 130 / 111018.0 0.2-1.8 6.9
2018-Feb-09 06:00N 45°06' W 000°36'0 0.0 140 / 111017.9 0.5-1.6 6.9
2018-Feb-09 05:00N 45°06' W 000°36'0 0.0 140 / 101018.4 0.9-1.8 6.9
2018-Feb-09 04:00N 45°06' W 000°36'0 0.0 140 / 81018.8 0.7-1.8 6.9
2018-Feb-09 03:00N 45°06' W 000°36'0 0.0 150 / 71019.6 0.4-2.6 6.9
2018-Feb-09 02:00N 45°06' W 000°36'0 0.0 170 / 41020.4 -0.0-2.5 7.2
2018-Feb-09 01:00N 45°06' W 000°36'0 0.0 150 / 81020.1 0.7-2.2 6.9
2018-Feb-09 00:00N 45°06' W 000°36'0 0.0 160 / 51020.5 5.4 1.7-2.3 7.0
2018-Feb-08 23:00N 45°06' W 000°36'0 0.0 130 / 51020.6 2.2-2.1 6.9
2018-Feb-08 22:00N 45°06' W 000°36'7 7.3 150 / 41021.1 2.9-2.7 6.9
2018-Feb-08 21:00N 45°12' W 000°42'1312.7 200 / 61021.4 2.2 2.2-3.2 7.0
2018-Feb-08 20:00N 45°24' W 000°48'1010.3 220 / 61021.5 2.7-1.8 7.4
2018-Feb-08 19:00N 45°30' W 001°00'1514.6 230 / 41021.7 4.9 0.9 8.2
2018-Feb-08 18:00N 45°42' W 001°12'1010.3 350 / 51021.7 5.4-1.5 8.4
2018-Feb-08 17:00N 45°36' W 001°24'8 8.4 340 / 41021.8 5.4-0.5 9.9
2018-Feb-08 16:00N 45°36' W 001°36'8 8.4 020 / 41021.9 5.4-1.1 9.7
2018-Feb-08 15:00N 45°36' W 001°48'0 0.0 010 / 51022.0 5.5-1.1 9.9
2018-Feb-08 14:00N 45°36' W 001°48'0 0.0 010 / 61022.3 6.4-1.0 9.9
2018-Feb-08 13:00N 45°36' W 001°48'0 0.0 020 / 41022.7 5.7-0.8 9.9
2018-Feb-08 12:00N 45°36' W 001°48'0 0.0 040 / 51023.1 5.4 5.5-1.3 9.9
2018-Feb-08 11:00N 45°36' W 001°48'0 0.0 060 / 91023.4 5.2-2.2 9.7
2018-Feb-08 10:00N 45°36' W 001°48'7 7.3 050 / 121023.3 5.5-1.6 9.7
2018-Feb-08 09:00N 45°42' W 001°42'4 4.2 030 / 131023.1 5.0-4.5 9.7
2018-Feb-08 08:00N 45°42' W 001°36'4 4.2 020 / 131022.6 4.7-2.610.2
2018-Feb-08 07:00N 45°42' W 001°30'1010.3 020 / 131022.3 4.4-0.810.0
2018-Feb-08 06:00N 45°36' W 001°18'8 8.4 030 / 71022.1 2.9-0.8 9.5
2018-Feb-08 05:00N 45°36' W 001°06'0 0.0 350 / 71022.1 1.4-1.6 8.2
2018-Feb-08 04:00N 45°36' W 001°06'0 0.0 040 / 71022.0 2.4-3.3 8.0
2018-Feb-08 03:00N 45°36' W 001°06'0 0.0 040 / 71022.0 2.4-3.2 7.9
2018-Feb-08 02:00N 45°36' W 001°06'0 0.0 050 / 91022.1 2.2-1.8 8.4
2018-Feb-08 01:00N 45°36' W 001°06'0 0.0 030 / 101022.0 2.5-2.1 9.2
2018-Feb-08 00:00N 45°36' W 001°06'0 0.0 030 / 121021.8 2.2 2.7-1.2 9.4
2018-Feb-07 23:00N 45°36' W 001°06'   010 / 141021.5 2.9-0.8 8.9
Track history (hours):
 
Tides and Currents Weather Stations Pressure Air Temp Water Temp Dewpoint Dewpoint Depression Visibility Wind Speed Wind Dir Waves Ship Positions

Callsign BATFR63 (name unknown)

Last reported at 2018-Feb-17 23:00 UTC. Time now 2018-Feb-17 23:52 UTC.
Position N 49°30' W 000°12'.

Wind from 170 at 10 knots

Barometer 1024.1 mb
Air temperature 6.4 ° C
Dewpoint 4.5 ° C
Water temperature 7.7 ° C

Date/timePositionNaut miles runAvg speedWind from/ knotsBaromVisibWave heightAir tempDewpointWater temp
2018-Feb-17 23:00N 49°30' W 000°12'0 0.0 170 / 101024.1 6.4 4.5 7.7
2018-Feb-17 22:00N 49°30' W 000°12'0 0.0 180 / 101024.2 6.7 4.9 7.4
2018-Feb-17 21:00N 49°30' W 000°12'0 0.0 190 / 61024.1 6.7 5.4 7.5
2018-Feb-17 20:00N 49°30' W 000°12'0 0.0 190 / 51024.5 6.9 5.2 7.9
2018-Feb-17 19:00N 49°30' W 000°12'0 0.0 190 / 11024.6 6.9 4.9 7.9
2018-Feb-17 18:00N 49°30' W 000°12'8 7.8 240 / 31024.4 6.9 4.9 7.9
2018-Feb-17 17:00N 49°30' E 000°00'0 0.0 240 / 21024.1 6.9 4.7 7.0
2018-Feb-17 16:00N 49°30' E 000°00'0 0.0 360 / 11023.6 9.7 5.4 7.2
2018-Feb-17 15:00N 49°30' E 000°00'0 0.0 310 / 31023.4 8.7 4.9 7.7
2018-Feb-17 14:00N 49°30' E 000°00'0 0.0 320 / 41023.0 8.7 3.4 7.7
2018-Feb-17 13:00N 49°30' E 000°00'0 0.0 310 / 71022.6 7.0 3.4 7.5
2018-Feb-17 12:00N 49°30' E 000°00'0 0.0 290 / 51022.4 5.4 6.2 2.9 7.5
2018-Feb-17 11:00N 49°30' E 000°00'0 0.0 270 / 51022.0 5.7 2.4 7.4
2018-Feb-17 10:00N 49°30' E 000°00'0 0.0 270 / 21021.2 5.9 1.9 6.7
2018-Feb-17 09:00N 49°30' E 000°00'0 0.0 060 / 31020.6 6.4 2.4 7.2
2018-Feb-17 08:00N 49°30' E 000°00'0 0.0 360 / 51020.5 5.4 1.5 6.9
2018-Feb-17 07:00N 49°30' E 000°00'0 0.0 350 / 31020.2 5.4 1.9 7.4
2018-Feb-17 06:00N 49°30' E 000°00'0 0.0 120 / 31019.8 5.2 2.2 7.7
2018-Feb-17 05:00N 49°30' E 000°00'0 0.0 040 / 41019.6 5.7 1.7 7.4
2018-Feb-17 04:00N 49°30' E 000°00'0 0.0 100 / 71019.6 6.0 1.9 7.2
2018-Feb-17 03:00N 49°30' E 000°00'0 0.0 080 / 71019.8 6.4 1.9 6.9
2018-Feb-17 02:00N 49°30' E 000°00'0 0.0 100 / 111019.8 5.9 1.9 6.4
2018-Feb-17 01:00N 49°30' E 000°00'0 0.0 100 / 111020.0 5.7 1.9 6.7
2018-Feb-17 00:00N 49°30' E 000°00'0 0.0 110 / 111020.6 5.4 5.9 1.7 7.4
2018-Feb-16 23:00N 49°30' E 000°00'0 0.0 110 / 91021.2 5.9 2.2 7.5
2018-Feb-16 22:00N 49°30' E 000°00'0 0.0 120 / 111021.6 6.2 2.4 6.4
2018-Feb-16 21:00N 49°30' E 000°00'0 0.0 120 / 81022.3 6.7 2.4 7.7
2018-Feb-16 20:00N 49°30' E 000°00'0 0.0 120 / 81023.2 6.9 2.0 7.4
2018-Feb-16 19:00N 49°30' E 000°00'0 0.0 120 / 81023.9 7.0 2.5 7.2
2018-Feb-16 18:00N 49°30' E 000°00'0 0.0 100 / 51024.8 6.9 3.0 7.2
2018-Feb-16 17:00N 49°30' E 000°00'0 0.0 020 / 61024.9 6.7 3.7 6.9
2018-Feb-16 15:00N 49°30' E 000°00'0 0.0 020 / 21025.3 5.4 8.4 4.2 7.2
2018-Feb-16 14:00N 49°30' E 000°00'0 0.0 210 / 11026.0 8.9 4.2 6.9
2018-Feb-16 13:00N 49°30' E 000°00'0 0.0 230 / 21026.6 7.4 3.2 7.2
2018-Feb-16 12:00N 49°30' E 000°00'0 0.0 180 / 31026.8 6.7 2.5 7.2
2018-Feb-16 11:00N 49°30' E 000°00'0 0.0 180 / 61027.3 5.5 2.2 7.2
2018-Feb-16 10:00N 49°30' E 000°00'0 0.0 180 / 41027.0 5.4 2.2 6.9
2018-Feb-16 09:00N 49°30' E 000°00'0 0.0 170 / 81026.6 2.2 4.7 2.4 6.4
2018-Feb-16 08:00N 49°30' E 000°00'0 0.0 200 / 61026.4 5.2 3.2 6.7
2018-Feb-16 07:00N 49°30' E 000°00'0 0.0 220 / 101026.0 5.2 3.2 6.7
2018-Feb-16 06:00N 49°30' E 000°00'0 0.0 240 / 81025.8 5.7 3.4 6.9
2018-Feb-16 05:00N 49°30' E 000°00'0 0.0 230 / 121025.5 5.5 3.7 6.9
2018-Feb-16 04:00N 49°30' E 000°00'0 0.0 220 / 91025.1 5.7 4.0 7.0
2018-Feb-16 03:00N 49°30' E 000°00'0 0.0 240 / 91024.5 5.4 6.4 4.2 6.7
2018-Feb-16 02:00N 49°30' E 000°00'0 0.0 240 / 81024.0 6.5 4.5 6.4
2018-Feb-16 01:00N 49°30' E 000°00'0 0.0 260 / 91023.3 6.9 4.2 7.2
2018-Feb-16 00:00N 49°30' E 000°00'0 0.0 260 / 131022.5 5.4 7.2 4.4 7.4
2018-Feb-15 23:00N 49°30' E 000°00'0 0.0 280 / 141021.8 7.4 4.2 7.2
2018-Feb-15 22:00N 49°30' E 000°00'0 0.0 260 / 121021.3 7.2 4.9 6.9
2018-Feb-15 21:00N 49°30' E 000°00'0 0.0 260 / 111020.4 2.2 7.0 4.5 6.5
2018-Feb-15 20:00N 49°30' E 000°00'0 0.0 260 / 91019.8 7.4 4.9 7.4
2018-Feb-15 19:00N 49°30' E 000°00'7 7.2 290 / 121019.4 7.9 4.2 7.2
2018-Feb-15 18:00N 49°24' E 000°06'8 7.8 250 / 81018.6 7.5 4.5 5.2
2018-Feb-15 17:00N 49°24' E 000°18'0 0.0 260 / 71017.8 7.2 4.9 4.9
2018-Feb-15 16:00N 49°24' E 000°18'0 0.0 260 / 91016.9 7.2 5.4 5.0
2018-Feb-15 15:00N 49°24' E 000°18'0 0.0 260 / 91016.0 2.2 7.4 5.5 4.9
2018-Feb-15 14:00N 49°24' E 000°18'0 0.0 260 / 91015.1 7.7 5.9 5.0
2018-Feb-15 13:00N 49°24' E 000°18'0 0.0 270 / 101014.4 8.7 6.2 5.2
2018-Feb-15 12:00N 49°24' E 000°18'0 0.0 270 / 131013.3 8.4 6.5 5.4
2018-Feb-15 11:00N 49°24' E 000°18'0 0.0 260 / 151012.6 9.2 7.2 5.4
2018-Feb-15 10:00N 49°24' E 000°18'0 0.0 260 / 151011.5 10.2 7.9 5.4
2018-Feb-15 09:00N 49°24' E 000°18'0 0.0 250 / 141010.3 2.2 10.5 8.2 5.2
2018-Feb-15 08:00N 49°24' E 000°18'0 0.0 250 / 131009.5 10.9 8.9 4.9
2018-Feb-15 07:00N 49°24' E 000°18'0 0.0 240 / 141008.4 10.9 9.4 4.9
2018-Feb-15 06:00N 49°24' E 000°18'0 0.0 240 / 71008.0 10.2 9.2 5.2
2018-Feb-15 05:00N 49°24' E 000°18'0 0.0 220 / 101007.2 10.4 8.9 4.9
2018-Feb-15 04:00N 49°24' E 000°18'0 0.0 220 / 91006.7 9.7 8.7 4.9
2018-Feb-15 03:00N 49°24' E 000°18'0 0.0 220 / 101006.4 9.4 8.4 4.9
2018-Feb-15 02:00N 49°24' E 000°18'0 0.0 220 / 91005.9 8.7 7.9 4.9
2018-Feb-15 01:00N 49°24' E 000°18'0 0.0 140 / 21005.4 7.4 6.5 4.9
2018-Feb-15 00:00N 49°24' E 000°18'0 0.0 170 / 61004.9 6.9 5.9 5.0
2018-Feb-14 23:00N 49°24' E 000°18'0 0.0 120 / 41004.9 5.9 4.9 5.0
2018-Feb-14 22:00N 49°24' E 000°18'0 0.0 100 / 41005.0 5.7 4.4 5.4
2018-Feb-14 21:00N 49°24' E 000°18'0 0.0 110 / 81005.1 5.2 3.9 5.0
2018-Feb-14 20:00N 49°24' E 000°18'0 0.0 130 / 91005.4 5.4 3.7 4.9
2018-Feb-14 19:00N 49°24' E 000°18'4 3.9 130 / 91006.3 5.0 3.4 4.9
2018-Feb-14 18:00N 49°24' E 000°12'10 9.8 150 / 181005.8 4.9 2.9 4.7
2018-Feb-14 17:00N 49°30' E 000°00'8 0.2 160 / 251006.0 5.9 2.9 7.2
2018-Feb-12 16:00N 49°30' W 000°12'10 9.8 250 / 111018.2 3.9 1.2 8.2
2018-Feb-12 15:00N 49°36' W 000°24'1211.7 270 / 281018.2 3.7 1.4 8.7
2018-Feb-12 14:00N 49°36' W 000°42'10 9.8 220 / 131018.0 6.4 0.4 9.2
2018-Feb-12 13:00N 49°42' W 000°54'8 7.8 250 / 91018.4 6.7-0.2 8.7
2018-Feb-12 12:00N 49°42' W 001°06'8 7.8 260 / 141018.6 6.7 0.7 8.7
2018-Feb-12 11:00N 49°42' W 001°18'10 9.8 290 / 131018.9 7.5-0.8 8.7
2018-Feb-12 10:00N 49°48' W 001°30'8 7.7 290 / 161018.8 7.5-1.6 9.7
2018-Feb-12 09:00N 49°48' W 001°42'1313.1 290 / 141018.7 7.2-0.8 9.7
2018-Feb-12 08:00N 49°42' W 002°00'7 7.1 290 / 181017.9 6.5-0.8 9.7
2018-Feb-12 07:00N 49°36' W 002°06'1414.3 300 / 211017.6 6.7-0.8 9.9
2018-Feb-12 06:00N 49°24' W 002°18'10 9.9 300 / 121017.7 6.2-0.6 9.9
2018-Feb-12 05:00N 49°18' W 002°30'1211.7 280 / 181017.6 6.9 0.910.2
2018-Feb-12 04:00N 49°18' W 002°48'10 9.9 310 / 201017.5 7.0-0.310.4
2018-Feb-12 03:00N 49°12' W 003°00'1313.2 310 / 201017.7 7.0-0.810.2
2018-Feb-12 02:00N 49°06' W 003°18'8 7.9 310 / 201018.0 7.0-1.610.0
2018-Feb-12 01:00N 49°06' W 003°30'1313.2 320 / 211018.2 6.9-0.810.0
2018-Feb-12 00:00N 49°00' W 003°48'10 9.9 310 / 211018.3 6.9-1.810.7
2018-Feb-11 23:00N 48°54' W 004°00'8 7.9 320 / 231018.1 6.9-1.810.7
2018-Feb-11 22:00N 48°54' W 004°12'1313.3 320 / 231018.0 7.0 0.410.9
2018-Feb-11 21:00N 48°48' W 004°30'10 9.9 320 / 231017.7 7.2-0.810.9
2018-Feb-11 20:00N 48°42' W 004°42'7 7.2 330 / 251017.3 7.2-0.810.9
2018-Feb-11 19:00N 48°36' W 004°48'0 0.0 320 / 291016.8 6.5-0.210.9
2018-Feb-11 18:00N 48°36' W 004°48'1212.0 310 / 261015.8 6.9-0.310.9
2018-Feb-11 17:00N 48°24' W 004°48'6 6.0 320 / 251015.2 6.9 0.210.7
2018-Feb-11 16:00N 48°18' W 004°48'1212.0 310 / 261014.7 7.0 0.210.7
2018-Feb-11 15:00N 48°06' W 004°48'7 7.2 320 / 271014.6 5.9 2.710.5
2018-Feb-11 14:00N 48°00' W 004°42'7 7.2 320 / 231014.1 7.5 2.410.7
2018-Feb-11 13:00N 47°54' W 004°36'1010.0 320 / 261013.5 8.2 3.911.2
2018-Feb-11 12:00N 47°48' W 004°24'1010.1 310 / 191013.7 7.2 3.410.5
2018-Feb-11 11:00N 47°42' W 004°12'1010.1 310 / 241013.3 7.7 3.711.0
2018-Feb-11 10:00N 47°36' W 004°00'8 8.1 300 / 221013.1 9.4 3.010.7
2018-Feb-11 09:00N 47°36' W 003°48'1413.5 300 / 181013.0 8.9 2.711.0
2018-Feb-11 08:00N 47°30' W 003°30'1010.1 310 / 191012.7 9.2 3.910.5
2018-Feb-11 07:00N 47°24' W 003°18'8 8.1 310 / 191011.8 9.4 3.910.4
2018-Feb-11 06:00N 47°24' W 003°06'0 0.0 310 / 171011.7 9.4 5.210.5
2018-Feb-11 05:00N 47°24' W 003°06'0 0.0 320 / 211011.1 10.2 5.210.7
2018-Feb-11 04:00N 47°24' W 003°06'0 0.0 300 / 171010.5 10.4 7.910.7
2018-Feb-11 03:00N 47°24' W 003°06'0 0.0 300 / 241010.0 10.4 8.510.7
2018-Feb-11 02:00N 47°24' W 003°06'0 0.0 260 / 161009.6 11.210.910.7
2018-Feb-11 01:00N 47°24' W 003°06'0 0.0 260 / 151010.1 11.210.910.7
2018-Feb-11 00:00N 47°24' W 003°06'0 0.0 260 / 141010.6 11.210.910.7
2018-Feb-10 23:00N 47°24' W 003°06'0 0.0 260 / 151011.3 11.210.910.7
2018-Feb-10 22:00N 47°24' W 003°06'0 0.0 240 / 151011.9 10.910.710.7
2018-Feb-10 21:00N 47°24' W 003°06'6 6.0 230 / 161012.6 0.5 10.710.410.4
2018-Feb-10 20:00N 47°18' W 003°06'7 7.3 230 / 221012.9 10.210.010.4
2018-Feb-10 19:00N 47°12' W 003°00'1010.1 220 / 231014.5 9.4 9.2 9.9
2018-Feb-10 18:00N 47°06' W 002°48'1312.7 220 / 191015.8 9.4 7.7 9.4
2018-Feb-10 17:00N 46°54' W 002°42'1010.2 220 / 181017.0 9.4 7.9 9.7
2018-Feb-10 16:00N 46°48' W 002°30'7 7.3 220 / 191017.9 9.5 7.0 9.5
2018-Feb-10 15:00N 46°42' W 002°24'1312.7 200 / 181019.4 8.9 6.4 9.9
2018-Feb-10 14:00N 46°30' W 002°18'1010.2 200 / 181020.4 8.7 5.410.5
2018-Feb-10 13:00N 46°24' W 002°06'7 7.3 200 / 151021.5 8.4 4.4 9.9
2018-Feb-10 12:00N 46°18' W 002°00'1514.6 200 / 131022.6 2.2 8.0 2.710.0
2018-Feb-10 11:00N 46°06' W 001°48'7 7.3 190 / 81023.2 7.7 1.410.0
2018-Feb-10 10:00N 46°00' W 001°42'1312.7 130 / 31023.9 7.2 0.4 9.7
2018-Feb-10 09:00N 45°48' W 001°36'1010.3 100 / 61024.0 6.9 2.2 9.9
2018-Feb-10 08:00N 45°42' W 001°24'8 8.4 070 / 61023.9 6.4 2.0 9.7
2018-Feb-10 07:00N 45°42' W 001°12'7 7.3 070 / 41023.8 4.2 1.4 8.2
2018-Feb-10 06:00N 45°36' W 001°06'0 0.0 040 / 51023.2 5.7 1.9 8.2
2018-Feb-10 05:00N 45°36' W 001°06'0 0.0 350 / 61023.1 6.2 1.4 7.9
2018-Feb-10 04:00N 45°36' W 001°06'0 0.0 1022.8 6.7 1.0 8.7
2018-Feb-10 03:00N 45°36' W 001°06'0 0.0 1023.1 5.4 5.9 0.7 9.0
2018-Feb-10 02:00N 45°36' W 001°06'0 0.0 350 / 91023.4 6.2 0.2 8.2
2018-Feb-10 01:00N 45°36' W 001°06'0 0.0 350 / 111023.2 6.2-0.3 8.5
2018-Feb-10 00:00N 45°36' W 001°06'0 0.0 330 / 121023.6 5.4 6.0-0.2 8.7
2018-Feb-09 23:00N 45°36' W 001°06'0 0.0 340 / 121023.2 6.2 0.4 8.9
2018-Feb-09 22:00N 45°36' W 001°06'0 0.0 320 / 111023.1 6.4-0.0 8.7
2018-Feb-09 21:00N 45°36' W 001°06'0 0.0 330 / 81022.7 6.2 0.4 7.9
2018-Feb-09 20:00N 45°36' W 001°06'0 0.0 350 / 121022.1 5.9 0.2 8.0
2018-Feb-09 19:00N 45°36' W 001°06'0 0.0 330 / 161021.2 6.7-0.7 8.4
2018-Feb-09 18:00N 45°36' W 001°06'1010.3 330 / 211020.0 7.4 0.2 8.4
2018-Feb-09 17:00N 45°30' W 000°54'1312.7 320 / 201018.3 7.7 1.2 7.9
2018-Feb-09 16:00N 45°18' W 000°48'1312.7 340 / 111017.7 6.7 2.7 7.2
2018-Feb-09 15:00N 45°06' W 000°42'1312.7 340 / 111017.2 5.7 3.4 6.9
2018-Feb-09 14:00N 44°54' W 000°36'4 4.3 300 / 81016.9 4.9 3.7 7.0
2018-Feb-09 13:00N 44°54' W 000°30'0 0.0 200 / 101016.1 6.7 1.0 7.0
2018-Feb-09 12:00N 44°54' W 000°30'0 0.0 190 / 91016.9 4.2 0.2 7.2
2018-Feb-09 11:00N 44°54' W 000°30'4 4.3 190 / 101017.5 2.5-0.3 7.0
2018-Feb-09 10:00N 44°54' W 000°36'1212.0 180 / 101018.0 1.2-1.6 6.9
2018-Feb-09 09:00N 45°06' W 000°36'0 0.0 150 / 121018.4 2.2 1.2-1.2 6.9
2018-Feb-09 08:00N 45°06' W 000°36'0 0.0 140 / 111018.4 0.7-1.3 6.9
2018-Feb-09 07:00N 45°06' W 000°36'0 0.0 130 / 111018.0 0.2-1.8 6.9
2018-Feb-09 06:00N 45°06' W 000°36'0 0.0 140 / 111017.9 0.5-1.6 6.9
2018-Feb-09 05:00N 45°06' W 000°36'0 0.0 140 / 101018.4 0.9-1.8 6.9
2018-Feb-09 04:00N 45°06' W 000°36'0 0.0 140 / 81018.8 0.7-1.8 6.9
2018-Feb-09 03:00N 45°06' W 000°36'0 0.0 150 / 71019.6 0.4-2.6 6.9
2018-Feb-09 02:00N 45°06' W 000°36'0 0.0 170 / 41020.4 -0.0-2.5 7.2
2018-Feb-09 01:00N 45°06' W 000°36'0 0.0 150 / 81020.1 0.7-2.2 6.9
2018-Feb-09 00:00N 45°06' W 000°36'0 0.0 160 / 51020.5 5.4 1.7-2.3 7.0
2018-Feb-08 23:00N 45°06' W 000°36'0 0.0 130 / 51020.6 2.2-2.1 6.9
2018-Feb-08 22:00N 45°06' W 000°36'7 7.3 150 / 41021.1 2.9-2.7 6.9
2018-Feb-08 21:00N 45°12' W 000°42'1312.7 200 / 61021.4 2.2 2.2-3.2 7.0
2018-Feb-08 20:00N 45°24' W 000°48'1010.3 220 / 61021.5 2.7-1.8 7.4
2018-Feb-08 19:00N 45°30' W 001°00'1514.6 230 / 41021.7 4.9 0.9 8.2
2018-Feb-08 18:00N 45°42' W 001°12'1010.3 350 / 51021.7 5.4-1.5 8.4
2018-Feb-08 17:00N 45°36' W 001°24'8 8.4 340 / 41021.8 5.4-0.5 9.9
2018-Feb-08 16:00N 45°36' W 001°36'8 8.4 020 / 41021.9 5.4-1.1 9.7
2018-Feb-08 15:00N 45°36' W 001°48'0 0.0 010 / 51022.0 5.5-1.1 9.9
2018-Feb-08 14:00N 45°36' W 001°48'0 0.0 010 / 61022.3 6.4-1.0 9.9
2018-Feb-08 13:00N 45°36' W 001°48'0 0.0 020 / 41022.7 5.7-0.8 9.9
2018-Feb-08 12:00N 45°36' W 001°48'0 0.0 040 / 51023.1 5.4 5.5-1.3 9.9
2018-Feb-08 11:00N 45°36' W 001°48'0 0.0 060 / 91023.4 5.2-2.2 9.7
2018-Feb-08 10:00N 45°36' W 001°48'7 7.3 050 / 121023.3 5.5-1.6 9.7
2018-Feb-08 09:00N 45°42' W 001°42'4 4.2 030 / 131023.1 5.0-4.5 9.7
2018-Feb-08 08:00N 45°42' W 001°36'4 4.2 020 / 131022.6 4.7-2.610.2
2018-Feb-08 07:00N 45°42' W 001°30'1010.3 020 / 131022.3 4.4-0.810.0
2018-Feb-08 06:00N 45°36' W 001°18'8 8.4 030 / 71022.1 2.9-0.8 9.5
2018-Feb-08 05:00N 45°36' W 001°06'0 0.0 350 / 71022.1 1.4-1.6 8.2
2018-Feb-08 04:00N 45°36' W 001°06'0 0.0 040 / 71022.0 2.4-3.3 8.0
2018-Feb-08 03:00N 45°36' W 001°06'0 0.0 040 / 71022.0 2.4-3.2 7.9
2018-Feb-08 02:00N 45°36' W 001°06'0 0.0 050 / 91022.1 2.2-1.8 8.4
2018-Feb-08 01:00N 45°36' W 001°06'0 0.0 030 / 101022.0 2.5-2.1 9.2
2018-Feb-08 00:00N 45°36' W 001°06'0 0.0 030 / 121021.8 2.2 2.7-1.2 9.4
2018-Feb-07 23:00N 45°36' W 001°06'   010 / 141021.5 2.9-0.8 8.9

Dump ship's entire track history